sensor_id;sensor_type;location;lat;lon;timestamp;pressure;altitude;pressure_sealevel;temperature;humidity
75668;BME280;64266;48.798;44.756;2023-05-08T00:03:55;101973.91;;;10.91;62.79
75668;BME280;64266;48.798;44.756;2023-05-08T00:08:59;101986.91;;;11.07;63.96
75668;BME280;64266;48.798;44.756;2023-05-08T00:14:02;101986.28;;;11.05;62.06
75668;BME280;64266;48.798;44.756;2023-05-08T00:19:06;102034.09;;;11.32;61.55
75668;BME280;64266;48.798;44.756;2023-05-08T00:24:09;102025.66;;;11.22;61.09
75668;BME280;64266;48.798;44.756;2023-05-08T00:29:11;102039.81;;;11.29;60.81
75668;BME280;64266;48.798;44.756;2023-05-08T00:34:15;101989.50;;;11.00;61.62
75668;BME280;64266;48.798;44.756;2023-05-08T00:39:18;102035.16;;;11.31;61.36
75668;BME280;64266;48.798;44.756;2023-05-08T00:44:21;102013.53;;;11.13;60.19
75668;BME280;64266;48.798;44.756;2023-05-08T00:49:25;102046.63;;;11.17;60.26
75668;BME280;64266;48.798;44.756;2023-05-08T00:54:28;102051.06;;;11.10;59.26
75668;BME280;64266;48.798;44.756;2023-05-08T00:59:32;102066.34;;;11.08;58.85
75668;BME280;64266;48.798;44.756;2023-05-08T01:04:37;102065.28;;;11.03;59.05
75668;BME280;64266;48.798;44.756;2023-05-08T01:09:40;102065.03;;;10.98;59.21
75668;BME280;64266;48.798;44.756;2023-05-08T01:20:22;102066.84;;;10.97;58.42
75668;BME280;64266;48.798;44.756;2023-05-08T01:42:14;102062.38;;;10.47;58.65
75668;BME280;64266;48.798;44.756;2023-05-08T01:47:23;102080.03;;;10.55;58.65
75668;BME280;64266;48.798;44.756;2023-05-08T01:52:37;102084.78;;;10.59;59.36
75668;BME280;64266;48.798;44.756;2023-05-08T01:57:46;102084.59;;;10.61;58.80
75668;BME280;64266;48.798;44.756;2023-05-08T02:02:51;102059.63;;;10.41;58.59
75668;BME280;64266;48.798;44.756;2023-05-08T02:07:56;102109.56;;;10.52;58.07
75668;BME280;64266;48.798;44.756;2023-05-08T02:13:00;102085.31;;;10.40;58.66
75668;BME280;64266;48.798;44.756;2023-05-08T02:18:06;102103.63;;;10.35;58.41
75668;BME280;64266;48.798;44.756;2023-05-08T02:23:10;102095.50;;;10.37;58.79
75668;BME280;64266;48.798;44.756;2023-05-08T02:28:15;102106.47;;;10.48;59.11
75668;BME280;64266;48.798;44.756;2023-05-08T02:33:18;102077.94;;;10.21;58.84
75668;BME280;64266;48.798;44.756;2023-05-08T02:38:22;102121.34;;;10.49;57.78
75668;BME280;64266;48.798;44.756;2023-05-08T02:43:27;102126.50;;;10.51;56.84
75668;BME280;64266;48.798;44.756;2023-05-08T02:48:37;102132.69;;;10.43;57.14
75668;BME280;64266;48.798;44.756;2023-05-08T02:53:47;102129.66;;;10.46;56.93
75668;BME280;64266;48.798;44.756;2023-05-08T02:59:49;102138.47;;;10.47;57.01
75668;BME280;64266;48.798;44.756;2023-05-08T03:04:58;102132.16;;;10.33;56.63
75668;BME280;64266;48.798;44.756;2023-05-08T03:10:08;102134.59;;;10.20;56.43
75668;BME280;64266;48.798;44.756;2023-05-08T03:15:18;102150.78;;;10.25;57.04
75668;BME280;64266;48.798;44.756;2023-05-08T03:20:23;102132.53;;;10.07;56.21
75668;BME280;64266;48.798;44.756;2023-05-08T03:25:28;102129.63;;;10.02;57.31
75668;BME280;64266;48.798;44.756;2023-05-08T03:30:34;102156.03;;;10.10;58.67
75668;BME280;64266;48.798;44.756;2023-05-08T03:35:41;102094.09;;;9.74;58.86
75668;BME280;64266;48.798;44.756;2023-05-08T03:40:45;102133.91;;;10.03;58.99
75668;BME280;64266;48.798;44.756;2023-05-08T03:45:49;102128.31;;;9.98;59.20
75668;BME280;64266;48.798;44.756;2023-05-08T03:50:52;102123.03;;;9.98;58.33
75668;BME280;64266;48.798;44.756;2023-05-08T03:55:57;102142.28;;;10.15;57.92
75668;BME280;64266;48.798;44.756;2023-05-08T04:12:21;102141.56;;;10.65;57.01
75668;BME280;64266;48.798;44.756;2023-05-08T04:17:41;102135.91;;;11.18;55.32
75668;BME280;64266;48.798;44.756;2023-05-08T04:22:49;102115.38;;;11.48;54.46
75668;BME280;64266;48.798;44.756;2023-05-08T04:27:53;102135.25;;;11.73;51.97
75668;BME280;64266;48.798;44.756;2023-05-08T04:32:58;102133.44;;;11.74;52.64
75668;BME280;64266;48.798;44.756;2023-05-08T04:38:02;102131.69;;;12.43;50.85
75668;BME280;64266;48.798;44.756;2023-05-08T04:43:06;102131.78;;;13.03;49.55
75668;BME280;64266;48.798;44.756;2023-05-08T04:48:09;102093.16;;;12.80;49.33
75668;BME280;64266;48.798;44.756;2023-05-08T04:53:11;102119.53;;;13.09;49.71
75668;BME280;64266;48.798;44.756;2023-05-08T04:58:15;102132.72;;;13.30;48.06
75668;BME280;64266;48.798;44.756;2023-05-08T05:03:18;102124.09;;;13.28;47.53
75668;BME280;64266;48.798;44.756;2023-05-08T05:08:22;102115.31;;;13.47;47.47
75668;BME280;64266;48.798;44.756;2023-05-08T05:13:25;102123.75;;;13.71;45.63
75668;BME280;64266;48.798;44.756;2023-05-08T05:18:28;102103.84;;;13.67;45.22
75668;BME280;64266;48.798;44.756;2023-05-08T05:23:33;102110.13;;;13.20;45.23
75668;BME280;64266;48.798;44.756;2023-05-08T05:28:36;102122.50;;;13.47;45.45
75668;BME280;64266;48.798;44.756;2023-05-08T05:33:40;102116.97;;;13.88;45.17
75668;BME280;64266;48.798;44.756;2023-05-08T05:38:44;102101.59;;;13.90;43.90
75668;BME280;64266;48.798;44.756;2023-05-08T05:43:47;102123.53;;;13.72;44.21
75668;BME280;64266;48.798;44.756;2023-05-08T05:48:50;102119.22;;;13.65;44.42
75668;BME280;64266;48.798;44.756;2023-05-08T05:53:53;102098.50;;;14.06;43.14
75668;BME280;64266;48.798;44.756;2023-05-08T05:58:56;102126.69;;;15.17;41.45
75668;BME280;64266;48.798;44.756;2023-05-08T06:04:00;102122.50;;;15.34;41.02
75668;BME280;64266;48.798;44.756;2023-05-08T06:09:03;102103.94;;;15.39;41.08
75668;BME280;64266;48.798;44.756;2023-05-08T06:14:09;102086.47;;;15.43;41.03
75668;BME280;64266;48.798;44.756;2023-05-08T06:19:13;102033.38;;;14.84;39.67
75668;BME280;64266;48.798;44.756;2023-05-08T06:24:16;102092.66;;;15.06;40.52
75668;BME280;64266;48.798;44.756;2023-05-08T06:29:19;102071.59;;;14.85;39.83
75668;BME280;64266;48.798;44.756;2023-05-08T06:34:21;102102.13;;;15.02;39.50
75668;BME280;64266;48.798;44.756;2023-05-08T06:39:24;102108.84;;;15.49;39.41
75668;BME280;64266;48.798;44.756;2023-05-08T06:44:27;102113.84;;;15.95;37.21
75668;BME280;64266;48.798;44.756;2023-05-08T06:49:30;102067.59;;;16.49;36.87
75668;BME280;64266;48.798;44.756;2023-05-08T06:54:33;102112.50;;;16.65;35.74
75668;BME280;64266;48.798;44.756;2023-05-08T06:59:36;102121.78;;;16.26;36.21
75668;BME280;64266;48.798;44.756;2023-05-08T07:04:38;102119.16;;;16.19;35.26
75668;BME280;64266;48.798;44.756;2023-05-08T07:09:41;102110.75;;;16.34;35.60
75668;BME280;64266;48.798;44.756;2023-05-08T07:14:44;102125.28;;;16.26;35.71
75668;BME280;64266;48.798;44.756;2023-05-08T07:19:50;102118.75;;;15.98;34.26
75668;BME280;64266;48.798;44.756;2023-05-08T07:24:53;102116.47;;;15.77;36.10
75668;BME280;64266;48.798;44.756;2023-05-08T07:29:56;102123.41;;;15.84;35.84
75668;BME280;64266;48.798;44.756;2023-05-08T07:35:08;102087.84;;;15.52;36.00
75668;BME280;64266;48.798;44.756;2023-05-08T07:40:13;102115.44;;;15.46;36.07
75668;BME280;64266;48.798;44.756;2023-05-08T07:45:15;102132.94;;;15.42;36.09
75668;BME280;64266;48.798;44.756;2023-05-08T07:50:19;102101.22;;;15.14;35.25
75668;BME280;64266;48.798;44.756;2023-05-08T07:55:22;102128.84;;;15.02;35.31
75668;BME280;64266;48.798;44.756;2023-05-08T08:00:25;102114.72;;;14.95;36.87
75668;BME280;64266;48.798;44.756;2023-05-08T08:05:32;102097.63;;;14.96;36.44
75668;BME280;64266;48.798;44.756;2023-05-08T08:10:34;102098.88;;;14.93;35.17
75668;BME280;64266;48.798;44.756;2023-05-08T08:15:38;102079.91;;;14.70;35.50
75668;BME280;64266;48.798;44.756;2023-05-08T08:20:40;102083.09;;;14.92;36.03
75668;BME280;64266;48.798;44.756;2023-05-08T08:25:44;102077.78;;;14.79;34.32
75668;BME280;64266;48.798;44.756;2023-05-08T08:30:47;102092.47;;;15.01;33.64
75668;BME280;64266;48.798;44.756;2023-05-08T08:35:50;102084.09;;;14.91;34.50
75668;BME280;64266;48.798;44.756;2023-05-08T08:40:53;102069.09;;;14.90;34.63
75668;BME280;64266;48.798;44.756;2023-05-08T08:45:57;102078.91;;;15.02;33.51
75668;BME280;64266;48.798;44.756;2023-05-08T08:51:05;102088.75;;;15.02;33.87
75668;BME280;64266;48.798;44.756;2023-05-08T08:56:10;102072.56;;;14.97;33.99
75668;BME280;64266;48.798;44.756;2023-05-08T09:01:15;102078.44;;;15.12;33.68
75668;BME280;64266;48.798;44.756;2023-05-08T09:06:20;102047.94;;;14.95;32.44
75668;BME280;64266;48.798;44.756;2023-05-08T09:11:23;102070.06;;;15.02;31.69
75668;BME280;64266;48.798;44.756;2023-05-08T09:16:27;102046.19;;;14.69;32.37
75668;BME280;64266;48.798;44.756;2023-05-08T09:21:31;102038.66;;;14.59;31.85
75668;BME280;64266;48.798;44.756;2023-05-08T09:26:35;102068.56;;;14.75;31.13
75668;BME280;64266;48.798;44.756;2023-05-08T09:31:40;102095.72;;;14.65;31.90
75668;BME280;64266;48.798;44.756;2023-05-08T09:36:43;102081.59;;;14.51;31.62
75668;BME280;64266;48.798;44.756;2023-05-08T09:42:03;102082.19;;;14.53;32.52
75668;BME280;64266;48.798;44.756;2023-05-08T09:47:15;102069.28;;;14.50;32.48
75668;BME280;64266;48.798;44.756;2023-05-08T09:52:21;102072.34;;;14.54;33.04
75668;BME280;64266;48.798;44.756;2023-05-08T09:57:25;102051.00;;;14.47;32.88
75668;BME280;64266;48.798;44.756;2023-05-08T10:02:29;102070.09;;;14.57;33.63
75668;BME280;64266;48.798;44.756;2023-05-08T10:07:34;102074.78;;;14.62;32.26
75668;BME280;64266;48.798;44.756;2023-05-08T10:12:39;102056.91;;;14.62;32.47
75668;BME280;64266;48.798;44.756;2023-05-08T10:22:57;102067.28;;;14.84;30.97
75668;BME280;64266;48.798;44.756;2023-05-08T10:33:30;102068.53;;;15.19;30.12
75668;BME280;64266;48.798;44.756;2023-05-08T10:38:36;102079.47;;;15.42;30.67
75668;BME280;64266;48.798;44.756;2023-05-08T10:43:43;102085.25;;;15.70;30.65
75668;BME280;64266;48.798;44.756;2023-05-08T10:49:03;102111.88;;;15.84;30.07
75668;BME280;64266;48.798;44.756;2023-05-08T10:59:21;102095.88;;;15.77;30.48
75668;BME280;64266;48.798;44.756;2023-05-08T11:04:27;102049.56;;;15.58;30.19
75668;BME280;64266;48.798;44.756;2023-05-08T11:09:45;102087.63;;;15.79;31.11
75668;BME280;64266;48.798;44.756;2023-05-08T11:15:03;102091.38;;;15.78;31.01
75668;BME280;64266;48.798;44.756;2023-05-08T11:20:11;102042.09;;;15.36;30.03
75668;BME280;64266;48.798;44.756;2023-05-08T11:25:14;102041.88;;;15.37;30.44
75668;BME280;64266;48.798;44.756;2023-05-08T11:40:56;102083.78;;;15.12;30.74
75668;BME280;64266;48.798;44.756;2023-05-08T11:46:13;102069.03;;;15.03;30.68
75668;BME280;64266;48.798;44.756;2023-05-08T11:51:17;102068.34;;;15.14;31.23
75668;BME280;64266;48.798;44.756;2023-05-08T11:56:23;102054.00;;;15.08;30.78
75668;BME280;64266;48.798;44.756;2023-05-08T12:01:26;102042.34;;;14.96;30.49
75668;BME280;64266;48.798;44.756;2023-05-08T12:06:31;102058.31;;;15.09;30.41
75668;BME280;64266;48.798;44.756;2023-05-08T12:11:34;102036.94;;;15.09;31.51
75668;BME280;64266;48.798;44.756;2023-05-08T12:16:38;102049.81;;;15.19;30.72
75668;BME280;64266;48.798;44.756;2023-05-08T12:21:48;102026.78;;;15.18;31.50
75668;BME280;64266;48.798;44.756;2023-05-08T12:26:54;102038.84;;;15.27;31.58
75668;BME280;64266;48.798;44.756;2023-05-08T12:31:59;101941.22;;;14.75;32.12
75668;BME280;64266;48.798;44.756;2023-05-08T12:37:03;102021.31;;;15.38;31.60
75668;BME280;64266;48.798;44.756;2023-05-08T12:42:07;101996.69;;;15.29;31.17
75668;BME280;64266;48.798;44.756;2023-05-08T12:47:11;102013.00;;;15.46;31.22
75668;BME280;64266;48.798;44.756;2023-05-08T12:52:14;102000.13;;;15.36;31.38
75668;BME280;64266;48.798;44.756;2023-05-08T12:57:18;102019.13;;;15.28;30.20
75668;BME280;64266;48.798;44.756;2023-05-08T13:02:22;102016.75;;;15.13;29.95
75668;BME280;64266;48.798;44.756;2023-05-08T13:07:30;102027.19;;;14.90;30.17
75668;BME280;64266;48.798;44.756;2023-05-08T13:12:33;102002.81;;;14.74;30.71
75668;BME280;64266;48.798;44.756;2023-05-08T13:17:36;102024.00;;;14.75;30.46
75668;BME280;64266;48.798;44.756;2023-05-08T13:22:38;102011.13;;;14.59;30.84
75668;BME280;64266;48.798;44.756;2023-05-08T13:27:41;102007.03;;;14.56;31.76
75668;BME280;64266;48.798;44.756;2023-05-08T13:32:44;102002.13;;;14.53;31.37
75668;BME280;64266;48.798;44.756;2023-05-08T13:37:47;102036.22;;;14.51;31.73
75668;BME280;64266;48.798;44.756;2023-05-08T13:42:51;102033.31;;;14.53;32.28
75668;BME280;64266;48.798;44.756;2023-05-08T13:47:54;102024.31;;;14.47;32.79
75668;BME280;64266;48.798;44.756;2023-05-08T13:52:58;102044.22;;;14.51;31.79
75668;BME280;64266;48.798;44.756;2023-05-08T13:58:00;102029.91;;;14.39;32.56
75668;BME280;64266;48.798;44.756;2023-05-08T14:03:03;102025.41;;;14.27;33.48
75668;BME280;64266;48.798;44.756;2023-05-08T14:08:06;102044.31;;;14.12;33.77
75668;BME280;64266;48.798;44.756;2023-05-08T14:13:09;102035.72;;;14.03;34.01
75668;BME280;64266;48.798;44.756;2023-05-08T14:18:12;102030.19;;;14.05;33.87
75668;BME280;64266;48.798;44.756;2023-05-08T14:23:15;101999.47;;;13.76;33.70
75668;BME280;64266;48.798;44.756;2023-05-08T14:28:17;102021.97;;;14.00;34.52
75668;BME280;64266;48.798;44.756;2023-05-08T14:33:19;101978.34;;;13.75;33.89
75668;BME280;64266;48.798;44.756;2023-05-08T14:38:22;102023.19;;;14.04;33.80
75668;BME280;64266;48.798;44.756;2023-05-08T14:43:24;101982.28;;;13.66;33.84
75668;BME280;64266;48.798;44.756;2023-05-08T14:48:27;102005.03;;;13.75;32.68
75668;BME280;64266;48.798;44.756;2023-05-08T14:53:31;102027.78;;;13.84;32.33
75668;BME280;64266;48.798;44.756;2023-05-08T14:58:34;102032.06;;;13.78;31.84
75668;BME280;64266;48.798;44.756;2023-05-08T15:03:37;102047.44;;;13.83;32.50
75668;BME280;64266;48.798;44.756;2023-05-08T15:08:40;102052.38;;;13.73;32.69
75668;BME280;64266;48.798;44.756;2023-05-08T15:13:43;102042.34;;;13.62;33.40
75668;BME280;64266;48.798;44.756;2023-05-08T15:18:45;102012.59;;;13.51;32.72
75668;BME280;64266;48.798;44.756;2023-05-08T15:23:48;102037.81;;;13.75;32.45
75668;BME280;64266;48.798;44.756;2023-05-08T15:28:50;102012.41;;;13.60;32.02
75668;BME280;64266;48.798;44.756;2023-05-08T15:33:55;102016.88;;;13.79;32.02
75668;BME280;64266;48.798;44.756;2023-05-08T15:38:58;101986.56;;;13.67;31.34
75668;BME280;64266;48.798;44.756;2023-05-08T15:44:01;102001.31;;;13.76;31.88
75668;BME280;64266;48.798;44.756;2023-05-08T15:49:03;102020.97;;;13.81;31.63
75668;BME280;64266;48.798;44.756;2023-05-08T15:54:07;102027.56;;;13.79;31.28
75668;BME280;64266;48.798;44.756;2023-05-08T15:59:10;101991.28;;;13.65;31.47
75668;BME280;64266;48.798;44.756;2023-05-08T16:04:13;102032.69;;;13.87;31.56
75668;BME280;64266;48.798;44.756;2023-05-08T16:09:15;102010.13;;;13.70;31.28
75668;BME280;64266;48.798;44.756;2023-05-08T16:14:18;102009.72;;;13.66;31.69
75668;BME280;64266;48.798;44.756;2023-05-08T16:19:21;102030.63;;;13.69;32.13
75668;BME280;64266;48.798;44.756;2023-05-08T16:24:25;102037.84;;;13.69;31.99
75668;BME280;64266;48.798;44.756;2023-05-08T16:29:27;102030.63;;;13.69;32.94
75668;BME280;64266;48.798;44.756;2023-05-08T16:34:29;102057.09;;;13.84;33.04
75668;BME280;64266;48.798;44.756;2023-05-08T16:39:33;102068.78;;;13.83;32.63
75668;BME280;64266;48.798;44.756;2023-05-08T16:44:36;102052.00;;;13.63;32.49
75668;BME280;64266;48.798;44.756;2023-05-08T16:49:38;102055.25;;;13.71;32.66
75668;BME280;64266;48.798;44.756;2023-05-08T16:54:41;102064.47;;;13.82;32.59
75668;BME280;64266;48.798;44.756;2023-05-08T16:59:44;102042.34;;;13.62;33.29
75668;BME280;64266;48.798;44.756;2023-05-08T17:04:48;102044.19;;;13.61;34.95
75668;BME280;64266;48.798;44.756;2023-05-08T17:09:57;102056.09;;;13.65;34.36
75668;BME280;64266;48.798;44.756;2023-05-08T17:15:00;102054.25;;;13.59;35.49
75668;BME280;64266;48.798;44.756;2023-05-08T17:20:06;102072.09;;;13.72;33.95
75668;BME280;64266;48.798;44.756;2023-05-08T17:25:11;102078.03;;;13.74;34.40
75668;BME280;64266;48.798;44.756;2023-05-08T17:30:13;102075.94;;;13.69;36.12
75668;BME280;64266;48.798;44.756;2023-05-08T17:35:18;102080.28;;;13.64;36.03
75668;BME280;64266;48.798;44.756;2023-05-08T17:40:20;102094.22;;;13.59;36.32
75668;BME280;64266;48.798;44.756;2023-05-08T17:45:23;102072.03;;;13.39;36.56
75668;BME280;64266;48.798;44.756;2023-05-08T17:50:25;102078.81;;;13.41;36.73
75668;BME280;64266;48.798;44.756;2023-05-08T17:55:28;102086.81;;;13.48;36.76
75668;BME280;64266;48.798;44.756;2023-05-08T18:00:32;102082.72;;;13.45;36.87
75668;BME280;64266;48.798;44.756;2023-05-08T18:05:36;102014.59;;;12.97;36.72
75668;BME280;64266;48.798;44.756;2023-05-08T18:10:39;102063.41;;;13.17;36.64
75668;BME280;64266;48.798;44.756;2023-05-08T18:15:45;102085.56;;;13.31;36.48
75668;BME280;64266;48.798;44.756;2023-05-08T18:20:47;102072.84;;;13.26;37.55
75668;BME280;64266;48.798;44.756;2023-05-08T18:25:50;102080.84;;;13.26;37.13
75668;BME280;64266;48.798;44.756;2023-05-08T18:30:52;102092.34;;;13.33;36.99
75668;BME280;64266;48.798;44.756;2023-05-08T18:35:55;102070.59;;;13.23;36.88
75668;BME280;64266;48.798;44.756;2023-05-08T18:41:00;102053.78;;;13.10;37.48
75668;BME280;64266;48.798;44.756;2023-05-08T18:46:07;102077.56;;;13.24;37.43
75668;BME280;64266;48.798;44.756;2023-05-08T18:51:10;102036.09;;;13.02;37.32
75668;BME280;64266;48.798;44.756;2023-05-08T18:56:12;102088.41;;;13.23;37.30
75668;BME280;64266;48.798;44.756;2023-05-08T19:01:15;102061.72;;;13.03;37.35
75668;BME280;64266;48.798;44.756;2023-05-08T19:06:22;102015.13;;;12.66;37.62
75668;BME280;64266;48.798;44.756;2023-05-08T19:11:25;102059.66;;;12.98;37.18
75668;BME280;64266;48.798;44.756;2023-05-08T19:16:27;102071.75;;;13.07;37.07
75668;BME280;64266;48.798;44.756;2023-05-08T19:21:30;102064.81;;;13.07;36.96
75668;BME280;64266;48.798;44.756;2023-05-08T19:26:32;102060.47;;;12.99;37.04
75668;BME280;64266;48.798;44.756;2023-05-08T19:31:35;102044.06;;;12.89;36.96
75668;BME280;64266;48.798;44.756;2023-05-08T19:36:38;102068.06;;;13.02;36.28
75668;BME280;64266;48.798;44.756;2023-05-08T19:41:42;102037.94;;;12.88;36.56
75668;BME280;64266;48.798;44.756;2023-05-08T19:46:45;102050.22;;;12.96;36.62
75668;BME280;64266;48.798;44.756;2023-05-08T19:51:47;102059.25;;;13.01;36.35
75668;BME280;64266;48.798;44.756;2023-05-08T19:56:50;101995.44;;;12.54;36.29
75668;BME280;64266;48.798;44.756;2023-05-08T20:01:52;102061.69;;;12.90;35.73
75668;BME280;64266;48.798;44.756;2023-05-08T20:06:55;102066.56;;;12.86;35.84
75668;BME280;64266;48.798;44.756;2023-05-08T20:12:00;102063.28;;;12.78;36.11
75668;BME280;64266;48.798;44.756;2023-05-08T20:17:02;102030.88;;;12.68;35.78
75668;BME280;64266;48.798;44.756;2023-05-08T20:22:05;102043.81;;;12.64;35.85
75668;BME280;64266;48.798;44.756;2023-05-08T20:27:08;102087.06;;;12.86;36.01
75668;BME280;64266;48.798;44.756;2023-05-08T20:32:11;102061.63;;;12.77;35.65
75668;BME280;64266;48.798;44.756;2023-05-08T20:37:20;102046.47;;;12.71;35.22
75668;BME280;64266;48.798;44.756;2023-05-08T20:42:22;102053.03;;;12.75;36.12
75668;BME280;64266;48.798;44.756;2023-05-08T20:47:26;102063.28;;;12.78;35.00
75668;BME280;64266;48.798;44.756;2023-05-08T20:52:28;102074.53;;;12.80;35.66
75668;BME280;64266;48.798;44.756;2023-05-08T20:57:34;102000.09;;;12.39;35.77
75668;BME280;64266;48.798;44.756;2023-05-08T21:02:37;102080.44;;;12.69;35.44
75668;BME280;64266;48.798;44.756;2023-05-08T21:07:42;102059.75;;;12.71;36.01
75668;BME280;64266;48.798;44.756;2023-05-08T21:12:45;102031.47;;;12.57;35.89
75668;BME280;64266;48.798;44.756;2023-05-08T21:17:48;102053.81;;;12.62;35.87
75668;BME280;64266;48.798;44.756;2023-05-08T21:22:52;102000.03;;;12.26;35.88
75668;BME280;64266;48.798;44.756;2023-05-08T21:27:54;102040.19;;;12.37;35.72
75668;BME280;64266;48.798;44.756;2023-05-08T21:32:57;102063.59;;;12.55;35.85
75668;BME280;64266;48.798;44.756;2023-05-08T21:38:00;102034.88;;;12.37;35.21
75668;BME280;64266;48.798;44.756;2023-05-08T21:43:03;102071.78;;;12.54;35.62
75668;BME280;64266;48.798;44.756;2023-05-08T21:48:07;102070.78;;;12.55;36.04
75668;BME280;64266;48.798;44.756;2023-05-08T21:53:11;102054.97;;;12.46;35.38
75668;BME280;64266;48.798;44.756;2023-05-08T21:58:13;102069.09;;;12.47;35.52
75668;BME280;64266;48.798;44.756;2023-05-08T22:03:16;102074.59;;;12.39;35.94
75668;BME280;64266;48.798;44.756;2023-05-08T22:08:20;102023.25;;;12.04;36.39
75668;BME280;64266;48.798;44.756;2023-05-08T22:13:25;102075.56;;;12.31;36.24
75668;BME280;64266;48.798;44.756;2023-05-08T22:18:28;102075.47;;;12.18;36.79
75668;BME280;64266;48.798;44.756;2023-05-08T22:23:34;102065.22;;;12.15;36.83
75668;BME280;64266;48.798;44.756;2023-05-08T22:28:37;102032.38;;;11.95;37.14
75668;BME280;64266;48.798;44.756;2023-05-08T22:33:40;102058.06;;;12.16;37.19
75668;BME280;64266;48.798;44.756;2023-05-08T22:38:44;102032.94;;;11.90;37.38
75668;BME280;64266;48.798;44.756;2023-05-08T22:43:47;102042.84;;;12.03;37.69
75668;BME280;64266;48.798;44.756;2023-05-08T22:48:50;102009.16;;;11.76;37.39
75668;BME280;64266;48.798;44.756;2023-05-08T22:53:55;102050.59;;;11.98;37.38
75668;BME280;64266;48.798;44.756;2023-05-08T22:58:57;102060.22;;;11.99;37.47
75668;BME280;64266;48.798;44.756;2023-05-08T23:04:00;102042.91;;;11.82;37.34
75668;BME280;64266;48.798;44.756;2023-05-08T23:09:03;102061.56;;;11.88;37.58
75668;BME280;64266;48.798;44.756;2023-05-08T23:14:05;102060.38;;;11.91;38.04
75668;BME280;64266;48.798;44.756;2023-05-08T23:19:08;102034.03;;;11.68;38.13
75668;BME280;64266;48.798;44.756;2023-05-08T23:24:11;102068.72;;;11.88;37.98
75668;BME280;64266;48.798;44.756;2023-05-08T23:29:13;102059.06;;;11.80;38.51
75668;BME280;64266;48.798;44.756;2023-05-08T23:34:16;101967.31;;;11.08;38.72
75668;BME280;64266;48.798;44.756;2023-05-08T23:39:19;102077.00;;;11.72;38.72
75668;BME280;64266;48.798;44.756;2023-05-08T23:44:22;102063.56;;;11.59;38.18
75668;BME280;64266;48.798;44.756;2023-05-08T23:49:25;102085.00;;;11.57;39.15
75668;BME280;64266;48.798;44.756;2023-05-08T23:54:27;102043.97;;;11.38;39.08
75668;BME280;64266;48.798;44.756;2023-05-08T23:59:31;102030.59;;;11.25;38.93
